Terminal Aerodrome Forecast
Issued by NWS Grand Forks, ND

Home | Current Version | Previous Version | Graphics & Text | Print | Product List | Glossary On
Versions: 1 2 3 4 5 6 7 8 9 10 11 12 13
000
FTUS43 KFGF 061600 AAA
TAFFAR
TAF AMD
KFAR 061623Z 0616/0712 30010KT P6SM SKC
     FM062000 24008KT P6SM BKN120
     FM062300 19012KT P6SM BKN080=

USA.gov is the U.S. government's official web portal to all federal, state and local government web resources and services.